Time;durP1;ratioP1;P1;durP2;ratioP2;P2;SDS_P1;SDS_P2;PMS_P1;PMS_P2;Temp;Humidity;BMP_temperature;BMP_pressure;BME280_temperature;BME280_humidity;BME280_pressure;Samples;Min_cycle;Max_cycle;Signal;HPM_P1;HPM_P2
2024/01/25 00:00:49;;;;;;;41.78;29.85;;;;;;;;;;5050331;28;20017;-68
2024/01/25 00:03:15;;;;;;;43.67;29.58;;;;;;;;;;5051855;28;20112;-68
2024/01/25 00:05:41;;;;;;;40.30;28.95;;;;;;;;;;5047200;28;20207;-68
2024/01/25 00:08:07;;;;;;;42.70;30.05;;;;;;;;;;5047535;28;20025;-68
2024/01/25 00:10:34;;;;;;;47.67;30.00;;;;;;;;;;5050436;28;20033;-68
2024/01/25 00:13:01;;;;;;;42.55;29.92;;;;;;;;;;5047278;28;20506;-68
2024/01/25 00:15:27;;;;;;;43.63;30.67;;;;;;;;;;5047750;28;20111;-68
2024/01/25 00:17:53;;;;;;;45.97;31.25;;;;;;;;;;5050009;28;20025;-68
2024/01/25 00:20:19;;;;;;;50.92;30.23;;;;;;;;;;5049213;28;20103;-68
2024/01/25 00:22:45;;;;;;;37.83;27.55;;;;;;;;;;5049391;28;20129;-69
2024/01/25 00:25:11;;;;;;;44.33;29.95;;;;;;;;;;5051645;28;20111;-69
2024/01/25 00:27:49;;;;;;;43.10;27.95;;;;;;;;;;5045534;28;20146;-69
2024/01/25 00:30:15;;;;;;;42.30;29.10;;;;;;;;;;5040419;28;20044;-69
2024/01/25 00:32:43;;;;;;;40.67;28.92;;;;;;;;;;5050003;28;20013;-69
2024/01/25 00:35:10;;;;;;;40.78;28.52;;;;;;;;;;5052027;28;20032;-69
2024/01/25 00:37:36;;;;;;;39.95;30.27;;;;;;;;;;5045325;28;20022;-69
2024/01/25 00:40:03;;;;;;;42.85;30.27;;;;;;;;;;5032156;28;20026;-69
2024/01/25 00:42:29;;;;;;;43.50;28.95;;;;;;;;;;5032221;28;20048;-69
2024/01/25 00:44:58;;;;;;;45.47;28.63;;;;;;;;;;5050039;28;20058;-69
2024/01/25 00:47:24;;;;;;;39.57;28.20;;;;;;;;;;5034151;28;20050;-69
2024/01/25 00:49:50;;;;;;;42.33;28.97;;;;;;;;;;5043785;28;20050;-69
2024/01/25 00:52:16;;;;;;;42.45;28.63;;;;;;;;;;5036277;28;20048;-69
2024/01/25 00:54:43;;;;;;;38.13;27.60;;;;;;;;;;5051592;28;20387;-69
2024/01/25 00:57:09;;;;;;;41.50;28.20;;;;;;;;;;5052210;28;20032;-69
2024/01/25 00:59:35;;;;;;;39.30;27.75;;;;;;;;;;5051029;28;20384;-69
2024/01/25 01:02:02;;;;;;;39.85;28.30;;;;;;;;;;5039705;28;20083;-69
2024/01/25 01:07:32;;;;;;;40.08;27.80;;;;;;;;;;5048278;28;20075;-68
2024/01/25 01:09:58;;;;;;;38.22;28.98;;;;;;;;;;5055993;28;20071;-68
2024/01/25 01:12:24;;;;;;;39.00;28.60;;;;;;;;;;5054532;28;20029;-69
2024/01/25 01:14:50;;;;;;;38.05;27.30;;;;;;;;;;5055704;28;20025;-69
2024/01/25 01:17:18;;;;;;;37.83;27.23;;;;;;;;;;5049667;28;20017;-69
2024/01/25 01:19:44;;;;;;;39.72;27.85;;;;;;;;;;5055660;28;20048;-69
2024/01/25 01:22:10;;;;;;;37.13;27.50;;;;;;;;;;5055478;28;20047;-69
2024/01/25 01:24:48;;;;;;;45.72;29.40;;;;;;;;;;5055328;28;20017;-69
2024/01/25 01:27:14;;;;;;;36.83;26.98;;;;;;;;;;5055744;28;20036;-68
2024/01/25 01:29:41;;;;;;;40.75;28.75;;;;;;;;;;5055630;28;20439;-69
2024/01/25 01:32:07;;;;;;;40.28;28.80;;;;;;;;;;5055371;28;20482;-69
2024/01/25 01:34:33;;;;;;;36.30;26.97;;;;;;;;;;5055292;28;20482;-69
2024/01/25 01:36:59;;;;;;;40.15;27.55;;;;;;;;;;5055603;28;20331;-69
2024/01/25 01:39:25;;;;;;;35.45;26.10;;;;;;;;;;5053958;28;20021;-69
2024/01/25 01:41:54;;;;;;;41.58;28.73;;;;;;;;;;5055579;28;20036;-69
2024/01/25 01:44:20;;;;;;;39.72;27.75;;;;;;;;;;5049872;28;20418;-69
2024/01/25 01:46:46;;;;;;;36.70;27.33;;;;;;;;;;5045818;28;20047;-69
2024/01/25 01:49:13;;;;;;;37.93;27.47;;;;;;;;;;5055044;28;20033;-69
2024/01/25 01:51:40;;;;;;;38.23;27.70;;;;;;;;;;5054654;28;20037;-68
2024/01/25 01:54:07;;;;;;;41.92;26.40;;;;;;;;;;5054740;28;20032;-69
2024/01/25 01:56:33;;;;;;;35.90;26.50;;;;;;;;;;5041411;28;20427;-69
2024/01/25 01:59:30;;;;;;;45.93;29.43;;;;;;;;;;5055261;28;20021;-68
2024/01/25 02:01:56;;;;;;;45.43;29.63;;;;;;;;;;5043534;28;20498;-68
2024/01/25 02:04:22;;;;;;;39.42;28.42;;;;;;;;;;5053325;28;20062;-68
2024/01/25 02:06:48;;;;;;;45.42;30.45;;;;;;;;;;5054816;28;20027;-68
2024/01/25 02:09:14;;;;;;;45.58;31.42;;;;;;;;;;5054668;28;20032;-68
2024/01/25 02:11:40;;;;;;;46.65;32.13;;;;;;;;;;5054674;28;20036;-68
2024/01/25 02:14:10;;;;;;;51.57;34.20;;;;;;;;;;5054210;28;20106;-67
2024/01/25 02:16:37;;;;;;;46.83;35.70;;;;;;;;;;5053962;28;20118;-68
2024/01/25 02:19:03;;;;;;;52.27;37.10;;;;;;;;;;5053820;28;20029;-68
2024/01/25 02:21:29;;;;;;;48.58;36.65;;;;;;;;;;5052459;28;20044;-68
2024/01/25 02:23:55;;;;;;;53.47;39.20;;;;;;;;;;5053530;28;20031;-68
2024/01/25 02:26:21;;;;;;;59.23;40.47;;;;;;;;;;5053547;28;20033;-68
2024/01/25 02:28:48;;;;;;;52.07;39.53;;;;;;;;;;5053513;28;20029;-68
2024/01/25 02:31:14;;;;;;;59.80;42.33;;;;;;;;;;5048692;28;20394;-68
2024/01/25 02:33:40;;;;;;;56.50;42.77;;;;;;;;;;5053603;28;20096;-68
2024/01/25 02:36:06;;;;;;;58.17;44.30;;;;;;;;;;5054156;28;20025;-68
2024/01/25 02:38:32;;;;;;;63.73;46.70;;;;;;;;;;5053973;28;20029;-68
2024/01/25 02:40:58;;;;;;;62.13;46.10;;;;;;;;;;5052746;28;20031;-68
2024/01/25 02:43:24;;;;;;;55.23;45.00;;;;;;;;;;5054357;28;20426;-67
2024/01/25 02:45:50;;;;;;;56.93;41.80;;;;;;;;;;5042549;28;20028;-68
2024/01/25 02:48:17;;;;;;;52.37;41.83;;;;;;;;;;5053729;28;20486;-68
2024/01/25 02:50:43;;;;;;;57.55;42.60;;;;;;;;;;5053636;28;20063;-68
2024/01/25 02:53:10;;;;;;;66.87;45.57;;;;;;;;;;5053425;28;20053;-68
2024/01/25 02:55:38;;;;;;;58.63;44.93;;;;;;;;;;5051227;28;20513;-68
2024/01/25 02:58:04;;;;;;;61.33;45.67;;;;;;;;;;5041436;28;20017;-68
2024/01/25 03:00:30;;;;;;;61.53;46.50;;;;;;;;;;5053541;28;20024;-67
2024/01/25 03:02:56;;;;;;;65.37;46.77;;;;;;;;;;5053470;28;20047;-68
2024/01/25 03:05:28;;;;;;;67.90;49.90;;;;;;;;;;5035607;28;20017;-68
2024/01/25 03:07:54;;;;;;;69.33;49.97;;;;;;;;;;5053599;28;20052;-68
2024/01/25 03:10:21;;;;;;;67.10;50.93;;;;;;;;;;5053327;28;20060;-68
2024/01/25 03:12:47;;;;;;;69.07;50.83;;;;;;;;;;5053326;28;20009;-68
2024/01/25 03:15:13;;;;;;;65.03;50.13;;;;;;;;;;5053065;28;20162;-68
2024/01/25 03:17:39;;;;;;;67.27;51.67;;;;;;;;;;5052901;28;20048;-68
2024/01/25 03:20:05;;;;;;;65.13;49.87;;;;;;;;;;5051448;28;20383;-68
2024/01/25 03:22:40;;;;;;;68.87;50.63;;;;;;;;;;5053060;28;20029;-69
2024/01/25 03:25:07;;;;;;;68.13;51.53;;;;;;;;;;5037447;28;20419;-68
2024/01/25 03:27:33;;;;;;;67.93;52.57;;;;;;;;;;5053268;28;20090;-68
2024/01/25 03:29:59;;;;;;;74.93;55.53;;;;;;;;;;5052929;28;20037;-68
2024/01/25 03:32:25;;;;;;;72.77;56.00;;;;;;;;;;5052964;28;20036;-68
2024/01/25 03:34:51;;;;;;;73.27;57.20;;;;;;;;;;5053043;28;20029;-68
2024/01/25 03:37:17;;;;;;;75.43;58.50;;;;;;;;;;5052555;28;20074;-68
2024/01/25 03:39:43;;;;;;;76.43;58.43;;;;;;;;;;5052762;28;20025;-68
2024/01/25 03:42:09;;;;;;;81.50;61.63;;;;;;;;;;5052781;28;20025;-69
2024/01/25 03:44:35;;;;;;;78.30;58.37;;;;;;;;;;5052471;28;20032;-68
2024/01/25 03:47:01;;;;;;;81.87;59.70;;;;;;;;;;5052470;28;20358;-68
2024/01/25 03:49:27;;;;;;;77.00;59.90;;;;;;;;;;5052529;28;20036;-68
2024/01/25 03:51:53;;;;;;;79.60;58.73;;;;;;;;;;5052009;28;20102;-68
2024/01/25 03:54:19;;;;;;;78.63;58.50;;;;;;;;;;5052141;28;20481;-68
2024/01/25 03:56:45;;;;;;;79.07;59.70;;;;;;;;;;5052652;28;20037;-68
2024/01/25 03:59:14;;;;;;;81.47;59.63;;;;;;;;;;5052167;28;20017;-68
2024/01/25 04:01:47;;;;;;;77.23;58.47;;;;;;;;;;5052243;28;20529;-71
2024/01/25 04:04:15;;;;;;;78.33;59.13;;;;;;;;;;5052191;28;20029;-69
2024/01/25 04:06:51;;;;;;;80.67;59.07;;;;;;;;;;5052188;28;20017;-69
2024/01/25 04:09:16;;;;;;;75.23;58.57;;;23.60;99.90;;;;;;5052107;28;20040;-68
2024/01/25 04:11:43;;;;;;;77.07;59.07;;;22.80;99.90;;;;;;5050514;28;20367;-68
2024/01/25 04:14:08;;;;;;;78.60;59.87;;;22.80;99.90;;;;;;5052025;28;20055;-68
2024/01/25 04:16:34;;;;;;;76.70;58.67;;;22.70;99.90;;;;;;5052132;28;20033;-68
2024/01/25 04:19:00;;;;;;;76.07;57.03;;;22.70;99.90;;;;;;5052121;28;20025;-68
2024/01/25 04:21:26;;;;;;;75.53;57.80;;;22.80;99.90;;;;;;5051782;28;20379;-68
2024/01/25 04:23:52;;;;;;;75.83;57.97;;;22.70;99.90;;;;;;5050249;28;20031;-68
2024/01/25 04:26:17;;;;;;;79.17;57.93;;;22.70;99.90;;;;;;5047690;28;20021;-68
2024/01/25 04:28:43;;;;;;;79.10;60.23;;;22.60;99.90;;;;;;5051780;28;20112;-68
2024/01/25 04:31:09;;;;;;;76.00;58.37;;;22.60;99.90;;;;;;5050169;28;20128;-68
2024/01/25 04:33:34;;;;;;;78.20;59.20;;;22.70;99.90;;;;;;5051647;28;20051;-68
2024/01/25 04:36:00;;;;;;;75.17;57.27;;;22.70;99.90;;;;;;5051249;28;20025;-68
2024/01/25 04:38:26;;;;;;;78.33;58.07;;;22.70;99.90;;;;;;5049788;28;20040;-68
2024/01/25 04:40:51;;;;;;;79.03;57.80;;;22.70;99.90;;;;;;5045880;28;20033;-68
2024/01/25 04:43:17;;;;;;;77.47;58.30;;;22.70;99.90;;;;;;5045829;28;20028;-67
2024/01/25 04:45:42;;;;;;;75.10;56.53;;;22.70;99.90;;;;;;5048069;28;20032;-67
2024/01/25 04:48:08;;;;;;;78.53;59.60;;;22.60;99.90;;;;;;5044364;28;20021;-68
2024/01/25 04:50:34;;;;;;;79.60;60.30;;;22.60;99.90;;;;;;5044875;28;20120;-68
2024/01/25 04:53:02;;;;;;;81.33;59.90;;;22.60;99.90;;;;;;5044131;28;20041;-67
2024/01/25 04:55:28;;;;;;;76.33;58.43;;;22.60;99.90;;;;;;5043970;28;20021;-67
2024/01/25 04:57:53;;;;;;;79.93;58.40;;;22.60;99.90;;;;;;5042148;28;20040;-67
2024/01/25 05:00:23;;;;;;;78.93;59.93;;;22.60;99.90;;;;;;5049043;28;20104;-68
2024/01/25 05:02:49;;;;;;;84.17;60.10;;;22.70;99.90;;;;;;5047741;28;20021;-69
2024/01/25 05:05:15;;;;;;;80.90;59.77;;;22.50;99.90;;;;;;5051270;28;20029;-69
2024/01/25 05:07:41;;;;;;;76.00;59.60;;;22.50;99.90;;;;;;5051216;28;20102;-68
2024/01/25 05:10:07;;;;;;;85.57;61.80;;;22.50;99.90;;;;;;5051503;28;20041;-68
2024/01/25 05:12:33;;;;;;;78.80;58.37;;;22.50;99.90;;;;;;5051402;28;20056;-68
2024/01/25 05:14:59;;;;;;;82.23;58.77;;;22.50;99.90;;;;;;5051209;28;20367;-68
2024/01/25 05:17:24;;;;;;;80.73;60.53;;;22.60;99.90;;;;;;5051677;28;20017;-68
2024/01/25 05:19:50;;;;;;;81.13;59.83;;;22.50;99.90;;;;;;5051151;28;20098;-68
2024/01/25 05:22:16;;;;;;;78.93;59.97;;;22.50;99.90;;;;;;5051037;28;20029;-68
2024/01/25 05:24:41;;;;;;;81.17;59.50;;;22.50;99.90;;;;;;5050749;28;20023;-68
2024/01/25 05:27:07;;;;;;;82.93;60.33;;;22.40;99.90;;;;;;5051176;28;20169;-68
2024/01/25 05:29:33;;;;;;;84.30;60.10;;;22.40;99.90;;;;;;5051232;28;20052;-68
2024/01/25 05:32:02;;;;;;;84.10;61.37;;;22.40;99.90;;;;;;5049999;28;20479;-68
2024/01/25 05:34:27;;;;;;;81.73;60.27;;;22.40;99.90;;;;;;5049583;28;20033;-68
2024/01/25 05:36:53;;;;;;;88.33;60.97;;;;;;;;;;5050854;28;20031;-69
2024/01/25 05:39:20;;;;;;;83.00;59.97;;;22.40;99.90;;;;;;5051380;28;20079;-68
2024/01/25 05:41:45;;;;;;;81.90;60.67;;;22.30;99.90;;;;;;5050881;28;20021;-68
2024/01/25 05:44:13;;;;;;;80.73;59.27;;;22.30;99.90;;;;;;5051426;28;20420;-69
2024/01/25 05:46:38;;;;;;;82.50;59.73;;;22.30;99.90;;;;;;5050902;28;20455;-69
2024/01/25 05:49:04;;;;;;;78.60;58.10;;;22.30;99.90;;;;;;5053555;28;20079;-69
2024/01/25 05:51:30;;;;;;;79.73;58.00;;;22.30;99.90;;;;;;5054501;28;20041;-67
2024/01/25 05:53:56;;;;;;;79.30;61.03;;;22.30;99.90;;;;;;5053176;28;20029;-69
2024/01/25 05:56:21;;;;;;;82.00;61.47;;;22.30;99.90;;;;;;5053663;28;20044;-69
2024/01/25 05:58:47;;;;;;;85.60;64.43;;;22.30;99.90;;;;;;5054350;28;20013;-69
2024/01/25 06:01:13;;;;;;;83.87;61.50;;;22.30;99.90;;;;;;5053174;28;20033;-68
2024/01/25 06:03:38;;;;;;;76.93;59.30;;;22.30;99.90;;;;;;5053250;28;20386;-68
2024/01/25 06:06:04;;;;;;;83.73;61.27;;;22.30;99.90;;;;;;5048261;28;20032;-68
2024/01/25 06:08:29;;;;;;;88.87;63.53;;;22.30;99.90;;;;;;5055008;28;20083;-68
2024/01/25 06:10:55;;;;;;;86.10;61.60;;;22.30;99.90;;;;;;5054496;28;20505;-68
2024/01/25 06:13:21;;;;;;;79.37;60.23;;;22.20;99.90;;;;;;5047643;28;20450;-68
2024/01/25 06:15:52;;;;;;;86.87;62.20;;;22.20;99.90;;;;;;5047596;28;20025;-68
2024/01/25 06:18:18;;;;;;;81.03;61.83;;;22.10;99.90;;;;;;5052965;28;20382;-69
2024/01/25 06:20:44;;;;;;;86.13;62.37;;;22.10;99.90;;;;;;5054204;28;20033;-69
2024/01/25 06:23:09;;;;;;;86.97;63.43;;;22.10;99.90;;;;;;5040000;28;20017;-68
2024/01/25 06:25:36;;;;;;;84.57;62.20;;;22.20;99.90;;;;;;5054402;28;20529;-68
2024/01/25 06:28:03;;;;;;;85.23;63.77;;;22.10;99.90;;;;;;5040062;28;20025;-64
2024/01/25 06:30:29;;;;;;;88.50;63.20;;;22.00;99.90;;;;;;5054401;28;20045;-64
2024/01/25 06:36:16;;;;;;;86.10;62.93;;;22.10;99.90;;;;;;5037125;28;20114;-64
2024/01/25 06:38:42;;;;;;;92.63;65.67;;;22.10;99.90;;;;;;5038938;28;20021;-64
2024/01/25 06:41:09;;;;;;;89.67;64.67;;;22.10;99.90;;;;;;5042236;28;20044;-64
2024/01/25 06:43:34;;;;;;;88.03;62.33;;;22.10;99.90;;;;;;5051662;28;20037;-64
2024/01/25 06:46:00;;;;;;;91.33;64.70;;;22.20;99.90;;;;;;5053989;28;20332;-64
2024/01/25 06:48:26;;;;;;;84.73;62.47;;;22.20;99.90;;;;;;5053665;28;20051;-64
2024/01/25 06:50:52;;;;;;;85.27;62.00;;;22.20;99.90;;;;;;5046149;28;20045;-64
2024/01/25 06:53:18;;;;;;;89.77;63.23;;;22.20;99.90;;;;;;5047709;28;20152;-64
2024/01/25 06:55:44;;;;;;;87.33;62.70;;;22.10;99.90;;;;;;5040029;28;20033;-64
2024/01/25 06:58:22;;;;;;;85.97;63.50;;;22.10;99.90;;;;;;5053658;28;20115;-65
2024/01/25 07:00:48;;;;;;;85.70;61.90;;;22.10;99.90;;;;;;5052646;28;20417;-64
2024/01/25 07:03:15;;;;;;;86.97;62.43;;;22.10;99.90;;;;;;5053743;28;20117;-64
2024/01/25 07:05:41;;;;;;;87.07;64.30;;;22.10;99.90;;;;;;5051901;28;20025;-64
2024/01/25 07:08:08;;;;;;;88.63;64.33;;;22.10;99.90;;;;;;5052923;28;20127;-64
2024/01/25 07:10:34;;;;;;;88.00;64.13;;;22.10;99.90;;;;;;5053502;28;20552;-64
2024/01/25 07:13:00;;;;;;;88.50;62.97;;;22.10;99.90;;;;;;5053294;28;20103;-64
2024/01/25 07:15:26;;;;;;;90.67;64.07;;;22.20;99.90;;;;;;5053207;28;20513;-64
2024/01/25 07:17:52;;;;;;;85.17;64.17;;;22.10;99.90;;;;;;5052537;28;20032;-64
2024/01/25 07:20:18;;;;;;;89.20;64.90;;;22.10;99.90;;;;;;5050381;28;20091;-64
2024/01/25 07:22:43;;;;;;;89.07;64.40;;;22.10;99.90;;;;;;5053140;28;20494;-64
2024/01/25 07:25:09;;;;;;;83.97;63.10;;;22.10;99.90;;;;;;5049828;28;20029;-64
2024/01/25 07:27:34;;;;;;;90.50;64.37;;;22.10;99.90;;;;;;5052484;28;20135;-64
2024/01/25 07:30:00;;;;;;;90.03;65.13;;;22.10;99.90;;;;;;5052602;28;20028;-64
2024/01/25 07:32:26;;;;;;;90.63;67.27;;;22.10;99.90;;;;;;5052689;28;20151;-64
2024/01/25 07:34:53;;;;;;;98.07;68.27;;;22.10;99.90;;;;;;5053318;28;20439;-63
2024/01/25 07:37:19;;;;;;;89.87;66.83;;;22.10;99.90;;;;;;5052596;28;20033;-63
2024/01/25 07:39:45;;;;;;;92.63;66.70;;;22.10;99.90;;;;;;5051627;28;20479;-64
2024/01/25 07:42:12;;;;;;;92.00;65.60;;;22.20;99.90;;;;;;5046813;28;20083;-64
2024/01/25 07:44:38;;;;;;;93.57;68.07;;;22.20;99.90;;;;;;5051732;28;20032;-63
2024/01/25 07:47:04;;;;;;;95.47;65.17;;;22.20;99.90;;;;;;5044678;28;20029;-64
2024/01/25 07:49:30;;;;;;;92.83;64.20;;;22.20;99.90;;;;;;5050633;28;20035;-63
2024/01/25 07:51:56;;;;;;;96.13;67.87;;;22.20;99.90;;;;;;5051560;28;20190;-63
2024/01/25 07:54:22;;;;;;;90.87;65.73;;;22.30;99.90;;;;;;5052091;28;20033;-64
2024/01/25 07:56:47;;;;;;;87.07;65.13;;;22.30;99.90;;;;;;5052065;28;20034;-63
2024/01/25 07:59:13;;;;;;;92.43;66.07;;;22.30;99.90;;;;;;5052355;28;20043;-63
2024/01/25 08:01:38;;;;;;;93.87;67.77;;;22.40;99.90;;;;;;5052575;28;20454;-64
2024/01/25 08:04:05;;;;;;;92.57;64.97;;;22.40;99.90;;;;;;5047464;28;20022;-64
2024/01/25 08:06:30;;;;;;;90.63;66.03;;;22.40;99.90;;;;;;5033173;28;20033;-64
2024/01/25 08:15:40;;;;;;;91.97;66.00;;;22.50;99.90;;;;;;5042425;28;20074;-64
2024/01/25 08:18:06;;;;;;;93.53;66.53;;;22.50;99.90;;;;;;5041921;28;20044;-64
2024/01/25 08:20:31;;;;;;;96.63;67.43;;;22.50;99.90;;;;;;5048328;28;20098;-64
2024/01/25 08:22:57;;;;;;;88.30;65.53;;;22.50;99.90;;;;;;5051995;28;20378;-64
2024/01/25 08:25:23;;;;;;;100.77;68.27;;;22.50;99.90;;;;;;5050746;28;20108;-64
2024/01/25 08:27:49;;;;;;;97.43;67.10;;;22.50;99.90;;;;;;5046897;28;20452;-64
2024/01/25 08:30:15;;;;;;;96.17;66.23;;;22.60;99.90;;;;;;5041636;28;20037;-64
2024/01/25 08:32:40;;;;;;;91.97;66.93;;;22.50;99.90;;;;;;5038017;28;20029;-64
2024/01/25 08:35:06;;;;;;;92.50;66.60;;;22.50;99.90;;;;;;5038402;28;20033;-64
2024/01/25 08:37:32;;;;;;;94.33;66.90;;;22.50;99.90;;;;;;5036833;28;20044;-64
2024/01/25 08:39:58;;;;;;;98.20;68.93;;;22.60;99.90;;;;;;5051978;28;20056;-64
2024/01/25 08:42:24;;;;;;;93.47;67.43;;;22.60;99.90;;;;;;5051783;28;20067;-64
2024/01/25 08:44:49;;;;;;;94.90;68.30;;;22.60;99.90;;;;;;5051967;28;20124;-64
2024/01/25 08:47:18;;;;;;;92.97;68.10;;;22.60;99.90;;;;;;5051662;28;20098;-64
2024/01/25 08:49:44;;;;;;;90.37;67.13;;;22.70;99.90;;;;;;5033227;28;20026;-64
2024/01/25 08:52:09;;;;;;;94.83;67.87;;;22.70;99.90;;;;;;5041958;28;20053;-64
2024/01/25 08:54:37;;;;;;;94.97;68.93;;;22.60;99.90;;;;;;5051568;28;20087;-64
2024/01/25 08:57:06;;;;;;;94.83;66.73;;;22.60;99.90;;;;;;5051919;28;20056;-64
2024/01/25 08:59:35;;;;;;;98.70;70.20;;;22.70;99.90;;;;;;5051835;28;20052;-64
2024/01/25 09:02:01;;;;;;;100.67;69.63;;;22.70;99.90;;;;;;5051690;28;20108;-64
2024/01/25 09:04:26;;;;;;;93.07;69.13;;;22.60;99.90;;;;;;5052011;28;20072;-64
2024/01/25 09:06:52;;;;;;;101.80;71.93;;;22.60;99.90;;;;;;5051685;28;20099;-63
2024/01/25 09:09:17;;;;;;;97.57;70.53;;;22.70;99.90;;;;;;5050586;28;20025;-64
2024/01/25 09:11:43;;;;;;;98.63;71.23;;;22.60;99.90;;;;;;5051691;28;20037;-64
2024/01/25 09:14:09;;;;;;;98.27;70.80;;;22.60;99.90;;;;;;5050274;28;20036;-64
2024/01/25 09:16:37;;;;;;;97.77;71.93;;;22.70;99.90;;;;;;5051670;28;20488;-64
2024/01/25 09:19:02;;;;;;;95.27;70.93;;;22.70;99.90;;;;;;5050016;28;20060;-64
2024/01/25 09:21:28;;;;;;;95.93;71.23;;;22.70;99.90;;;;;;5046899;28;20048;-63
2024/01/25 09:23:54;;;;;;;105.20;74.10;;;22.80;99.90;;;;;;5046488;28;20075;-64
2024/01/25 09:26:20;;;;;;;99.37;71.13;;;22.80;99.90;;;;;;5044633;28;20032;-63
2024/01/25 09:28:46;;;;;;;98.10;69.90;;;22.80;99.90;;;;;;5049762;28;20327;-63
2024/01/25 09:31:11;;;;;;;102.63;72.50;;;22.90;99.90;;;;;;5053086;28;20040;-63
2024/01/25 09:33:37;;;;;;;100.30;75.03;;;22.90;99.90;;;;;;5052448;28;20024;-63
2024/01/25 09:36:03;;;;;;;98.67;73.03;;;22.90;99.90;;;;;;5054268;28;20017;-63
2024/01/25 09:38:29;;;;;;;100.90;72.33;;;22.90;99.90;;;;;;5053742;28;20086;-63
2024/01/25 09:40:55;;;;;;;107.50;74.20;;;23.00;99.90;;;;;;5055038;28;20032;-63
2024/01/25 09:43:22;;;;;;;102.63;73.37;;;23.00;99.90;;;;;;5054968;28;20040;-63
2024/01/25 09:45:52;;;;;;;98.27;73.10;;;23.00;99.90;;;;;;5055080;28;20021;-63
2024/01/25 09:48:18;;;;;;;102.07;74.07;;;23.00;99.90;;;;;;5054772;28;20028;-63
2024/01/25 09:50:46;;;;;;;100.07;73.50;;;23.10;99.90;;;;;;5053448;28;20032;-64
2024/01/25 09:53:21;;;;;;;103.73;75.13;;;23.10;99.90;;;;;;5054671;28;20077;-63
2024/01/25 09:55:53;;;;;;;104.90;74.83;;;23.20;99.90;;;;;;5054951;28;20098;-64
2024/01/25 09:58:20;;;;;;;96.75;73.28;;;23.10;99.90;;;;;;5054684;28;20029;-63
2024/01/25 10:00:45;;;;;;;102.23;73.77;;;23.20;99.90;;;;;;5054690;28;20061;-63
2024/01/25 10:03:14;;;;;;;100.47;72.93;;;23.20;99.90;;;;;;5039274;28;20030;-63
2024/01/25 10:05:41;;;;;;;100.00;73.47;;;23.20;99.90;;;;;;5054621;28;20025;-63
2024/01/25 10:08:13;;;;;;;101.83;73.63;;;23.30;99.90;;;;;;5053239;28;20340;-63
2024/01/25 10:10:38;;;;;;;101.53;75.47;;;23.30;99.90;;;;;;5039503;28;20029;-63
2024/01/25 10:13:05;;;;;;;99.07;75.57;;;23.30;99.90;;;;;;5053226;28;20028;-63
2024/01/25 10:15:30;;;;;;;101.65;73.72;;;23.30;99.90;;;;;;5054195;28;20028;-61
2024/01/25 10:17:56;;;;;;;102.03;75.73;;;23.30;99.90;;;;;;5054472;28;20025;-63
2024/01/25 10:20:25;;;;;;;108.27;77.73;;;23.30;99.90;;;;;;5054166;28;20025;-63
2024/01/25 10:22:52;;;;;;;111.57;78.37;;;23.20;99.90;;;;;;5045864;28;20029;-64
2024/01/25 10:25:17;;;;;;;104.60;76.90;;;23.30;99.90;;;;;;5049185;28;20029;-64
2024/01/25 10:27:43;;;;;;;102.60;76.67;;;23.40;99.90;;;;;;5054609;28;20017;-64
2024/01/25 10:30:35;;;;;;;100.20;75.23;;;23.30;99.90;;;;;;5041246;28;20037;-64
2024/01/25 10:33:02;;;;;;;104.60;75.30;;;23.40;99.90;;;;;;5066392;28;20061;-64
2024/01/25 10:35:31;;;;;;;111.13;79.53;;;23.40;99.90;;;;;;5047372;28;20025;-63
2024/01/25 10:37:56;;;;;;;108.00;76.97;;;23.40;99.90;;;;;;5046141;28;20434;-63
2024/01/25 10:40:29;;;;;;;102.77;76.63;;;23.20;99.90;;;;;;5053950;28;20117;-63
2024/01/25 10:46:16;;;;;;;109.13;77.17;;;23.40;99.90;;;;;;5042329;28;20032;-63
2024/01/25 10:48:42;;;;;;;109.20;77.73;;;23.40;99.90;;;;;;5053795;28;20022;-63
2024/01/25 10:51:10;;;;;;;106.55;76.53;;;23.20;99.90;;;;;;5053896;28;20083;-63
2024/01/25 10:53:37;;;;;;;103.43;77.57;;;23.30;99.90;;;;;;5053588;28;20106;-63
2024/01/25 10:56:03;;;;;;;104.85;75.43;;;23.30;99.90;;;;;;5052346;28;20033;-63
2024/01/25 10:58:41;;;;;;;99.40;75.23;;;23.40;99.90;;;;;;5054052;28;20029;-63
2024/01/25 11:01:13;;;;;;;103.75;73.80;;;23.40;99.90;;;;;;5053557;28;20021;-63
2024/01/25 11:03:42;;;;;;;102.20;74.77;;;23.50;99.90;;;;;;5053766;28;20048;-63
2024/01/25 11:06:09;;;;;;;101.27;74.73;;;23.50;99.90;;;;;;5053650;28;20022;-63
2024/01/25 11:08:38;;;;;;;93.80;72.30;;;23.50;99.90;;;;;;5053651;28;20017;-64
2024/01/25 11:11:12;;;;;;;102.38;72.97;;;23.50;99.90;;;;;;5053292;28;20032;-64
2024/01/25 11:13:44;;;;;;;98.65;73.00;;;23.50;99.90;;;;;;5053739;28;20024;-63
2024/01/25 11:16:14;;;;;;;99.83;74.43;;;23.50;99.90;;;;;;5039324;28;20029;-63
2024/01/25 11:18:58;;;;;;;96.53;73.70;;;23.50;99.90;;;;;;5047621;28;20040;-63
2024/01/25 11:21:44;;;;;;;102.63;76.80;;;23.60;99.90;;;;;;5079432;28;20112;-64
2024/01/25 11:24:25;;;;;;;102.63;73.10;;;23.50;99.90;;;;;;5041815;28;20024;-64
2024/01/25 11:26:53;;;;;;;95.63;72.60;;;23.50;99.90;;;;;;5053223;28;20025;-64
2024/01/25 11:29:22;;;;;;;101.70;73.90;;;23.40;99.90;;;;;;5053291;28;20017;-64
2024/01/25 11:31:49;;;;;;;97.55;73.97;;;23.50;99.90;;;;;;5051783;28;20093;-64
2024/01/25 11:34:15;;;;;;;93.35;71.70;;;23.60;99.90;;;;;;5053080;28;20020;-64
2024/01/25 11:36:42;;;;;;;100.10;73.07;;;23.50;99.90;;;;;;5053023;28;20025;-64
2024/01/25 11:39:12;;;;;;;95.37;72.23;;;23.60;99.90;;;;;;5051577;28;20025;-64
2024/01/25 11:41:38;;;;;;;99.70;72.53;;;23.60;99.90;;;;;;5053017;28;20021;-64
2024/01/25 11:44:04;;;;;;;91.88;69.07;;;23.50;99.90;;;;;;5052751;28;20025;-64
2024/01/25 11:46:30;;;;;;;99.07;71.80;;;23.40;99.90;;;;;;5052361;28;20482;-64
2024/01/25 11:48:57;;;;;;;94.18;72.18;;;23.50;99.90;;;;;;5053247;28;20021;-64
2024/01/25 11:51:23;;;;;;;90.70;70.13;;;23.60;99.90;;;;;;5052877;28;20033;-63
2024/01/25 11:53:49;;;;;;;95.00;71.15;;;23.70;99.90;;;;;;5052459;28;20043;-62
2024/01/25 11:56:19;;;;;;;98.07;73.05;;;23.60;99.90;;;;;;5051355;28;20116;-64
2024/01/25 11:58:45;;;;;;;97.73;74.17;;;23.70;99.90;;;;;;5052882;28;20021;-63
2024/01/25 12:01:13;;;;;;;101.43;74.30;;;23.60;99.90;;;;;;5052545;28;20031;-64
2024/01/25 12:03:40;;;;;;;97.70;73.95;;;23.70;99.90;;;;;;5052994;28;20383;-64
2024/01/25 12:06:09;;;;;;;102.05;74.88;;;23.70;99.90;;;;;;5052803;28;20090;-64
2024/01/25 12:08:35;;;;;;;98.18;73.60;;;23.70;99.90;;;;;;5052495;28;20025;-64
2024/01/25 12:11:08;;;;;;;97.28;72.93;;;23.80;99.90;;;;;;5052499;28;20127;-63
2024/01/25 12:13:35;;;;;;;99.72;74.85;;;23.70;99.90;;;;;;5052275;28;20356;-63
2024/01/25 12:16:02;;;;;;;100.35;75.85;;;23.70;99.90;;;;;;5052296;28;20025;-64
2024/01/25 12:18:28;;;;;;;102.72;74.22;;;23.70;99.90;;;;;;5047237;28;20450;-63
2024/01/25 12:20:54;;;;;;;94.57;70.47;;;23.80;99.90;;;;;;5048746;28;20028;-63
2024/01/25 12:23:20;;;;;;;94.68;70.85;;;23.90;99.90;;;;;;5052255;28;20370;-63
2024/01/25 12:25:45;;;;;;;91.43;70.50;;;23.90;99.90;;;;;;5052219;28;20039;-64
2024/01/25 12:28:11;;;;;;;88.78;68.03;;;23.90;99.90;;;;;;5052035;28;20207;-63
2024/01/25 12:30:37;;;;;;;93.40;71.13;;;23.90;99.90;;;;;;5052109;28;20116;-64
2024/01/25 12:33:03;;;;;;;90.57;68.13;;;23.80;99.90;;;;;;5040790;28;20426;-64
2024/01/25 12:35:29;;;;;;;91.35;67.68;;;23.90;99.90;;;;;;5049749;28;20048;-64
2024/01/25 12:37:54;;;;;;;91.45;69.10;;;23.90;99.90;;;;;;5052257;28;20142;-63
2024/01/25 12:40:20;;;;;;;88.63;69.47;;;23.90;99.90;;;;;;5050028;28;20028;-63
2024/01/25 12:42:46;;;;;;;89.40;68.20;;;23.90;99.90;;;;;;5048373;28;20081;-64
2024/01/25 12:45:11;;;;;;;88.22;66.78;;;23.80;99.90;;;;;;5051882;28;20110;-63
2024/01/25 12:47:46;;;;;;;93.00;69.90;;;23.80;99.90;;;;;;5051724;28;20324;-63
2024/01/25 12:50:12;;;;;;;;;;;24.00;99.90;;;;;;5052341;28;20095;-63
2024/01/25 12:52:37;;;;;;;90.22;68.65;;;23.90;99.90;;;;;;5051421;28;20358;-63
2024/01/25 12:55:03;;;;;;;92.13;70.50;;;24.10;99.90;;;;;;5051676;28;20108;-63
2024/01/25 12:57:29;;;;;;;93.18;69.82;;;24.10;99.90;;;;;;5050916;28;20471;-63
2024/01/25 12:59:54;;;;;;;91.53;70.10;;;24.10;99.90;;;;;;5051615;28;20029;-63
2024/01/25 13:02:20;;;;;;;96.13;70.35;;;24.00;99.90;;;;;;5051637;28;20466;-63
2024/01/25 13:04:45;;;;;;;95.43;71.82;;;24.10;99.90;;;;;;5051412;28;20033;-63
2024/01/25 13:07:11;;;;;;;94.50;72.20;;;24.20;99.90;;;;;;5051642;28;20040;-63
2024/01/25 13:09:37;;;;;;;91.47;70.10;;;24.20;99.90;;;;;;5051727;28;20101;-64
2024/01/25 13:12:02;;;;;;;95.82;69.60;;;24.10;99.90;;;;;;5051623;28;20385;-63